sensor_id;sensor_type;location;lat;lon;timestamp;pressure;altitude;pressure_sealevel;temperature;humidity
49030;BME280;43337;52.070;4.508;2024-03-25T00:00:12;100986.09;;;3.99;100.00
49030;BME280;43337;52.070;4.508;2024-03-25T00:02:39;100936.97;;;3.73;100.00
49030;BME280;43337;52.070;4.508;2024-03-25T00:05:05;100981.81;;;3.95;100.00
49030;BME280;43337;52.070;4.508;2024-03-25T00:07:31;100967.97;;;3.91;100.00
49030;BME280;43337;52.070;4.508;2024-03-25T00:09:57;100977.53;;;3.91;100.00
49030;BME280;43337;52.070;4.508;2024-03-25T00:12:25;100968.91;;;3.86;100.00
49030;BME280;43337;52.070;4.508;2024-03-25T00:14:50;100974.16;;;3.83;100.00
49030;BME280;43337;52.070;4.508;2024-03-25T00:17:17;100961.22;;;3.75;100.00
49030;BME280;43337;52.070;4.508;2024-03-25T00:19:42;100946.63;;;3.63;100.00
49030;BME280;43337;52.070;4.508;2024-03-25T00:22:08;100967.38;;;3.71;100.00
49030;BME280;43337;52.070;4.508;2024-03-25T00:24:33;100938.09;;;3.52;100.00
49030;BME280;43337;52.070;4.508;2024-03-25T00:27:00;100970.91;;;3.64;100.00
49030;BME280;43337;52.070;4.508;2024-03-25T00:29:26;100957.16;;;3.53;100.00
49030;BME280;43337;52.070;4.508;2024-03-25T00:31:51;100967.56;;;3.54;100.00
49030;BME280;43337;52.070;4.508;2024-03-25T00:34:17;100926.28;;;3.24;100.00
49030;BME280;43337;52.070;4.508;2024-03-25T00:36:42;100972.84;;;3.48;100.00
49030;BME280;43337;52.070;4.508;2024-03-25T00:39:08;100951.28;;;3.38;100.00
49030;BME280;43337;52.070;4.508;2024-03-25T00:41:33;100972.13;;;3.35;100.00
49030;BME280;43337;52.070;4.508;2024-03-25T00:43:59;100988.56;;;3.39;100.00
49030;BME280;43337;52.070;4.508;2024-03-25T00:46:24;100952.38;;;3.14;100.00
49030;BME280;43337;52.070;4.508;2024-03-25T00:48:49;100970.50;;;3.22;100.00
49030;BME280;43337;52.070;4.508;2024-03-25T00:51:14;100942.09;;;3.02;100.00
49030;BME280;43337;52.070;4.508;2024-03-25T00:53:40;100982.66;;;3.22;100.00
49030;BME280;43337;52.070;4.508;2024-03-25T00:56:05;100976.56;;;3.23;100.00
49030;BME280;43337;52.070;4.508;2024-03-25T00:58:31;100984.38;;;3.24;100.00
49030;BME280;43337;52.070;4.508;2024-03-25T01:00:56;100982.59;;;3.28;100.00
49030;BME280;43337;52.070;4.508;2024-03-25T01:03:22;100983.44;;;3.30;100.00
49030;BME280;43337;52.070;4.508;2024-03-25T01:05:47;100971.34;;;3.26;100.00
49030;BME280;43337;52.070;4.508;2024-03-25T01:08:13;100989.50;;;3.30;100.00
49030;BME280;43337;52.070;4.508;2024-03-25T01:10:39;100986.94;;;3.29;100.00
49030;BME280;43337;52.070;4.508;2024-03-25T01:13:05;100980.06;;;3.23;100.00
49030;BME280;43337;52.070;4.508;2024-03-25T01:15:30;100996.47;;;3.28;100.00
49030;BME280;43337;52.070;4.508;2024-03-25T01:17:56;100993.91;;;3.27;100.00
49030;BME280;43337;52.070;4.508;2024-03-25T01:20:22;100986.16;;;3.19;100.00
49030;BME280;43337;52.070;4.508;2024-03-25T01:22:47;100993.03;;;3.25;100.00
49030;BME280;43337;52.070;4.508;2024-03-25T01:25:12;100998.25;;;3.25;100.00
49030;BME280;43337;52.070;4.508;2024-03-25T01:27:38;100993.97;;;3.19;100.00
49030;BME280;43337;52.070;4.508;2024-03-25T01:30:03;100990.47;;;3.18;100.00
49030;BME280;43337;52.070;4.508;2024-03-25T01:32:29;100974.00;;;3.18;100.00
49030;BME280;43337;52.070;4.508;2024-03-25T01:34:56;100988.63;;;3.30;100.00
49030;BME280;43337;52.070;4.508;2024-03-25T01:37:21;100978.28;;;3.27;100.00
49030;BME280;43337;52.070;4.508;2024-03-25T01:39:46;100987.72;;;3.35;100.00
49030;BME280;43337;52.070;4.508;2024-03-25T01:42:13;100985.13;;;3.34;100.00
49030;BME280;43337;52.070;4.508;2024-03-25T01:44:38;100985.09;;;3.38;100.00
49030;BME280;43337;52.070;4.508;2024-03-25T01:47:04;100979.91;;;3.38;100.00
49030;BME280;43337;52.070;4.508;2024-03-25T01:49:29;100953.16;;;3.23;100.00
49030;BME280;43337;52.070;4.508;2024-03-25T01:51:55;100965.22;;;3.31;100.00
49030;BME280;43337;52.070;4.508;2024-03-25T01:54:22;100984.22;;;3.39;100.00
49030;BME280;43337;52.070;4.508;2024-03-25T01:56:48;100992.91;;;3.38;100.00
49030;BME280;43337;52.070;4.508;2024-03-25T01:59:15;100992.91;;;3.37;100.00
49030;BME280;43337;52.070;4.508;2024-03-25T02:01:44;100989.47;;;3.33;100.00
49030;BME280;43337;52.070;4.508;2024-03-25T02:04:10;100992.09;;;3.32;100.00
49030;BME280;43337;52.070;4.508;2024-03-25T02:06:41;100984.38;;;3.24;100.00
49030;BME280;43337;52.070;4.508;2024-03-25T02:09:07;100992.16;;;3.27;100.00
49030;BME280;43337;52.070;4.508;2024-03-25T02:11:34;100993.88;;;3.28;100.00
49030;BME280;43337;52.070;4.508;2024-03-25T02:13:59;100982.59;;;3.26;100.00
49030;BME280;43337;52.070;4.508;2024-03-25T02:16:25;100989.53;;;3.29;100.00
49030;BME280;43337;52.070;4.508;2024-03-25T02:18:50;100992.97;;;3.29;100.00
49030;BME280;43337;52.070;4.508;2024-03-25T02:21:16;100978.28;;;3.27;100.00
49030;BME280;43337;52.070;4.508;2024-03-25T02:23:44;100979.13;;;3.29;100.00
49030;BME280;43337;52.070;4.508;2024-03-25T02:26:10;100962.69;;;3.24;100.00
49030;BME280;43337;52.070;4.508;2024-03-25T02:28:41;100973.94;;;3.27;100.00
49030;BME280;43337;52.070;4.508;2024-03-25T02:31:07;100967.03;;;3.25;100.00
49030;BME280;43337;52.070;4.508;2024-03-25T02:33:32;100964.44;;;3.22;100.00
49030;BME280;43337;52.070;4.508;2024-03-25T02:35:57;100961.00;;;3.18;100.00
49030;BME280;43337;52.070;4.508;2024-03-25T02:38:23;100951.59;;;3.08;100.00
49030;BME280;43337;52.070;4.508;2024-03-25T02:40:49;100953.28;;;3.10;100.00
49030;BME280;43337;52.070;4.508;2024-03-25T02:43:15;100945.59;;;3.01;100.00
49030;BME280;43337;52.070;4.508;2024-03-25T02:45:40;100952.50;;;3.02;100.00
49030;BME280;43337;52.070;4.508;2024-03-25T02:48:06;100949.06;;;2.99;100.00
49030;BME280;43337;52.070;4.508;2024-03-25T02:50:32;100950.81;;;2.95;100.00
49030;BME280;43337;52.070;4.508;2024-03-25T02:52:58;100949.13;;;2.92;100.00
49030;BME280;43337;52.070;4.508;2024-03-25T02:55:23;100902.63;;;2.62;100.00
49030;BME280;43337;52.070;4.508;2024-03-25T02:57:48;100949.16;;;2.88;100.00
49030;BME280;43337;52.070;4.508;2024-03-25T03:00:15;100917.25;;;2.69;100.00
49030;BME280;43337;52.070;4.508;2024-03-25T03:02:41;100950.91;;;2.84;100.00
49030;BME280;43337;52.070;4.508;2024-03-25T03:05:07;100932.78;;;2.81;100.00
49030;BME280;43337;52.070;4.508;2024-03-25T03:07:32;100919.78;;;2.77;100.00
49030;BME280;43337;52.070;4.508;2024-03-25T03:09:57;100937.06;;;2.85;100.00
49030;BME280;43337;52.070;4.508;2024-03-25T03:12:23;100928.44;;;2.80;100.00
49030;BME280;43337;52.070;4.508;2024-03-25T03:14:48;100929.28;;;2.82;100.00
49030;BME280;43337;52.070;4.508;2024-03-25T03:17:13;100936.22;;;2.85;100.00
49030;BME280;43337;52.070;4.508;2024-03-25T03:19:39;100937.13;;;2.81;100.00
49030;BME280;43337;52.070;4.508;2024-03-25T03:22:04;100927.59;;;2.78;100.00
49030;BME280;43337;52.070;4.508;2024-03-25T03:24:30;100928.47;;;2.76;100.00
49030;BME280;43337;52.070;4.508;2024-03-25T03:26:55;100922.41;;;2.75;100.00
49030;BME280;43337;52.070;4.508;2024-03-25T03:29:20;100929.31;;;2.79;100.00
49030;BME280;43337;52.070;4.508;2024-03-25T03:31:46;100914.66;;;2.69;100.00
49030;BME280;43337;52.070;4.508;2024-03-25T03:34:11;100931.09;;;2.74;100.00
49030;BME280;43337;52.070;4.508;2024-03-25T03:36:36;100906.97;;;2.61;100.00
49030;BME280;43337;52.070;4.508;2024-03-25T03:39:01;100914.72;;;2.63;100.00
49030;BME280;43337;52.070;4.508;2024-03-25T03:41:30;100920.75;;;2.69;100.00
49030;BME280;43337;52.070;4.508;2024-03-25T03:43:55;100921.59;;;2.68;100.00
49030;BME280;43337;52.070;4.508;2024-03-25T03:46:21;100924.22;;;2.67;100.00
49030;BME280;43337;52.070;4.508;2024-03-25T03:48:47;100920.78;;;2.66;100.00
49030;BME280;43337;52.070;4.508;2024-03-25T03:51:13;100921.66;;;2.61;100.00
49030;BME280;43337;52.070;4.508;2024-03-25T03:53:38;100923.41;;;2.60;100.00
49030;BME280;43337;52.070;4.508;2024-03-25T03:56:04;100920.81;;;2.62;100.00
49030;BME280;43337;52.070;4.508;2024-03-25T03:58:33;100927.75;;;2.61;100.00
49030;BME280;43337;52.070;4.508;2024-03-25T04:00:59;100914.75;;;2.60;100.00
49030;BME280;43337;52.070;4.508;2024-03-25T04:03:25;100893.19;;;2.49;100.00
49030;BME280;43337;52.070;4.508;2024-03-25T04:05:50;100919.06;;;2.61;100.00
49030;BME280;43337;52.070;4.508;2024-03-25T04:08:16;100907.84;;;2.56;100.00
49030;BME280;43337;52.070;4.508;2024-03-25T04:10:44;100913.06;;;2.56;100.00
49030;BME280;43337;52.070;4.508;2024-03-25T04:13:11;100919.06;;;2.61;100.00
49030;BME280;43337;52.070;4.508;2024-03-25T04:15:41;100917.34;;;2.60;100.00
49030;BME280;43337;52.070;4.508;2024-03-25T04:18:08;100896.66;;;2.49;100.00
49030;BME280;43337;52.070;4.508;2024-03-25T04:20:38;100902.72;;;2.48;100.00
49030;BME280;43337;52.070;4.508;2024-03-25T04:23:04;100917.44;;;2.54;100.00
49030;BME280;43337;52.070;4.508;2024-03-25T04:25:32;100917.44;;;2.54;100.00
49030;BME280;43337;52.070;4.508;2024-03-25T04:28:02;100915.69;;;2.53;100.00
49030;BME280;43337;52.070;4.508;2024-03-25T04:30:27;100912.28;;;2.44;100.00
49030;BME280;43337;52.070;4.508;2024-03-25T04:32:54;100912.28;;;2.46;100.00
49030;BME280;43337;52.070;4.508;2024-03-25T04:35:20;100919.25;;;2.42;100.00
49030;BME280;43337;52.070;4.508;2024-03-25T04:37:45;100914.91;;;2.41;100.00
49030;BME280;43337;52.070;4.508;2024-03-25T04:40:11;100890.81;;;2.24;100.00
49030;BME280;43337;52.070;4.508;2024-03-25T04:42:39;100901.16;;;2.26;100.00
49030;BME280;43337;52.070;4.508;2024-03-25T04:45:05;100914.09;;;2.33;100.00
49030;BME280;43337;52.070;4.508;2024-03-25T04:47:32;100920.19;;;2.32;100.00
49030;BME280;43337;52.070;4.508;2024-03-25T04:49:57;100914.16;;;2.27;100.00
49030;BME280;43337;52.070;4.508;2024-03-25T04:52:22;100910.75;;;2.17;100.00
49030;BME280;43337;52.070;4.508;2024-03-25T04:54:49;100911.63;;;2.16;100.00
49030;BME280;43337;52.070;4.508;2024-03-25T04:57:15;100925.47;;;2.17;100.00
49030;BME280;43337;52.070;4.508;2024-03-25T04:59:40;100906.47;;;2.10;100.00
49030;BME280;43337;52.070;4.508;2024-03-25T05:02:05;100917.72;;;2.15;100.00
49030;BME280;43337;52.070;4.508;2024-03-25T05:04:30;100922.88;;;2.17;100.00
49030;BME280;43337;52.070;4.508;2024-03-25T05:06:56;100916.00;;;2.08;100.00
49030;BME280;43337;52.070;4.508;2024-03-25T05:09:21;100899.63;;;1.99;100.00
49030;BME280;43337;52.070;4.508;2024-03-25T05:11:47;100894.47;;;1.94;100.00
49030;BME280;43337;52.070;4.508;2024-03-25T05:14:13;100928.13;;;2.09;100.00
49030;BME280;43337;52.070;4.508;2024-03-25T05:16:38;100910.88;;;1.98;100.00
49030;BME280;43337;52.070;4.508;2024-03-25T05:19:04;100931.59;;;2.07;100.00
49030;BME280;43337;52.070;4.508;2024-03-25T05:21:30;100909.13;;;2.00;100.00
49030;BME280;43337;52.070;4.508;2024-03-25T05:23:56;100915.22;;;2.00;100.00
49030;BME280;43337;52.070;4.508;2024-03-25T05:26:21;100926.44;;;2.01;100.00
49030;BME280;43337;52.070;4.508;2024-03-25T05:28:55;100915.19;;;1.99;100.00
49030;BME280;43337;52.070;4.508;2024-03-25T05:31:22;100911.75;;;1.98;100.00
49030;BME280;43337;52.070;4.508;2024-03-25T05:33:48;100911.75;;;1.95;100.00
49030;BME280;43337;52.070;4.508;2024-03-25T05:36:15;100924.72;;;1.98;100.00
49030;BME280;43337;52.070;4.508;2024-03-25T05:38:41;100919.53;;;1.98;100.00
49030;BME280;43337;52.070;4.508;2024-03-25T05:41:10;100909.19;;;1.93;100.00
49030;BME280;43337;52.070;4.508;2024-03-25T05:43:35;100904.88;;;1.88;100.00
49030;BME280;43337;52.070;4.508;2024-03-25T05:46:01;100904.88;;;1.92;100.00
49030;BME280;43337;52.070;4.508;2024-03-25T05:48:30;100912.63;;;1.94;100.00
49030;BME280;43337;52.070;4.508;2024-03-25T05:51:03;100902.28;;;1.92;100.00
49030;BME280;43337;52.070;4.508;2024-03-25T05:53:30;100907.44;;;1.94;100.00
49030;BME280;43337;52.070;4.508;2024-03-25T05:55:57;100910.91;;;1.93;100.00
49030;BME280;43337;52.070;4.508;2024-03-25T05:58:26;100872.09;;;1.73;100.00
49030;BME280;43337;52.070;4.508;2024-03-25T06:00:52;100909.19;;;1.93;100.00
49030;BME280;43337;52.070;4.508;2024-03-25T06:03:20;100887.56;;;1.90;100.00
49030;BME280;43337;52.070;4.508;2024-03-25T06:05:51;100861.72;;;1.73;100.00
49030;BME280;43337;52.070;4.508;2024-03-25T06:08:16;100895.31;;;1.94;100.00
49030;BME280;43337;52.070;4.508;2024-03-25T06:10:51;100896.19;;;1.93;100.00
49030;BME280;43337;52.070;4.508;2024-03-25T06:13:17;100902.22;;;1.99;100.00
49030;BME280;43337;52.070;4.508;2024-03-25T06:15:44;100889.25;;;2.00;100.00
49030;BME280;43337;52.070;4.508;2024-03-25T06:18:16;100889.19;;;2.03;100.00
49030;BME280;43337;52.070;4.508;2024-03-25T06:20:42;100891.78;;;2.08;100.00
49030;BME280;43337;52.070;4.508;2024-03-25T06:23:07;100861.53;;;1.99;100.00
49030;BME280;43337;52.070;4.508;2024-03-25T06:25:32;100896.03;;;2.18;100.00
49030;BME280;43337;52.070;4.508;2024-03-25T06:27:59;100858.91;;;2.04;100.00
49030;BME280;43337;52.070;4.508;2024-03-25T06:30:25;100887.34;;;2.24;100.00
49030;BME280;43337;52.070;4.508;2024-03-25T06:33:22;100872.59;;;2.23;100.00
49030;BME280;43337;52.070;4.508;2024-03-25T06:36:07;100876.00;;;2.32;100.00
49030;BME280;43337;52.070;4.508;2024-03-25T06:38:33;100885.41;;;2.45;100.00
49030;BME280;43337;52.070;4.508;2024-03-25T06:40:59;100880.19;;;2.52;100.00
49030;BME280;43337;52.070;4.508;2024-03-25T06:43:24;100882.69;;;2.61;100.00
49030;BME280;43337;52.070;4.508;2024-03-25T06:45:50;100885.22;;;2.68;100.00
49030;BME280;43337;52.070;4.508;2024-03-25T06:48:17;100883.41;;;2.77;100.00
49030;BME280;43337;52.070;4.508;2024-03-25T06:50:52;100879.84;;;2.87;100.00
49030;BME280;43337;52.070;4.508;2024-03-25T06:53:17;100883.19;;;2.98;100.00
49030;BME280;43337;52.070;4.508;2024-03-25T06:55:54;100881.34;;;3.09;100.00
49030;BME280;43337;52.070;4.508;2024-03-25T06:58:20;100881.22;;;3.18;100.00
49030;BME280;43337;52.070;4.508;2024-03-25T07:00:46;100886.34;;;3.28;100.00
49030;BME280;43337;52.070;4.508;2024-03-25T07:03:13;100869.72;;;3.38;100.00
49030;BME280;43337;52.070;4.508;2024-03-25T07:05:38;100877.31;;;3.53;100.00
49030;BME280;43337;52.070;4.508;2024-03-25T07:08:04;100876.19;;;3.74;100.00
49030;BME280;43337;52.070;4.508;2024-03-25T07:10:34;100870.78;;;3.88;100.00
49030;BME280;43337;52.070;4.508;2024-03-25T07:12:59;100883.47;;;4.11;100.00
49030;BME280;43337;52.070;4.508;2024-03-25T07:15:24;100880.66;;;4.25;100.00
49030;BME280;43337;52.070;4.508;2024-03-25T07:17:50;100882.16;;;4.39;100.00
49030;BME280;43337;52.070;4.508;2024-03-25T07:20:15;100870.78;;;4.44;100.00
49030;BME280;43337;52.070;4.508;2024-03-25T07:22:41;100870.56;;;4.56;100.00
49030;BME280;43337;52.070;4.508;2024-03-25T07:25:06;100882.44;;;4.74;100.00
49030;BME280;43337;52.070;4.508;2024-03-25T07:27:32;100856.41;;;4.71;100.00
49030;BME280;43337;52.070;4.508;2024-03-25T07:29:57;100879.31;;;5.01;100.00
49030;BME280;43337;52.070;4.508;2024-03-25T07:32:24;100862.72;;;5.05;100.00
49030;BME280;43337;52.070;4.508;2024-03-25T07:34:49;100877.88;;;5.30;100.00
49030;BME280;43337;52.070;4.508;2024-03-25T07:37:14;100879.44;;;5.40;100.00
49030;BME280;43337;52.070;4.508;2024-03-25T07:39:40;100868.06;;;5.43;100.00
49030;BME280;43337;52.070;4.508;2024-03-25T07:42:05;100875.59;;;5.58;100.00
49030;BME280;43337;52.070;4.508;2024-03-25T07:44:32;100879.63;;;5.73;100.00
49030;BME280;43337;52.070;4.508;2024-03-25T07:46:57;100882.03;;;5.82;100.00
49030;BME280;43337;52.070;4.508;2024-03-25T07:49:23;100866.41;;;5.80;100.00
49030;BME280;43337;52.070;4.508;2024-03-25T07:51:48;100881.72;;;5.97;100.00
49030;BME280;43337;52.070;4.508;2024-03-25T07:54:18;100889.19;;;6.13;100.00
49030;BME280;43337;52.070;4.508;2024-03-25T07:56:45;100893.41;;;6.18;100.00
49030;BME280;43337;52.070;4.508;2024-03-25T07:59:10;100883.78;;;6.20;100.00
49030;BME280;43337;52.070;4.508;2024-03-25T08:01:35;100889.03;;;6.20;100.00
49030;BME280;43337;52.070;4.508;2024-03-25T08:04:01;100895.03;;;6.24;100.00
49030;BME280;43337;52.070;4.508;2024-03-25T08:06:27;100908.00;;;6.28;100.00
49030;BME280;43337;52.070;4.508;2024-03-25T08:08:53;100899.13;;;6.34;100.00
49030;BME280;43337;52.070;4.508;2024-03-25T08:11:18;100900.75;;;6.40;100.00
49030;BME280;43337;52.070;4.508;2024-03-25T08:13:44;100904.88;;;6.50;100.00
49030;BME280;43337;52.070;4.508;2024-03-25T08:16:12;100905.56;;;6.56;100.00
49030;BME280;43337;52.070;4.508;2024-03-25T08:18:37;100900.31;;;6.56;100.00
49030;BME280;43337;52.070;4.508;2024-03-25T08:21:03;100897.50;;;6.66;100.00
49030;BME280;43337;52.070;4.508;2024-03-25T08:23:29;100887.91;;;6.65;100.00
49030;BME280;43337;52.070;4.508;2024-03-25T08:25:55;100904.06;;;6.82;100.00
49030;BME280;43337;52.070;4.508;2024-03-25T08:28:20;100873.84;;;6.69;100.00
49030;BME280;43337;52.070;4.508;2024-03-25T08:30:46;100900.13;;;6.98;100.00
49030;BME280;43337;52.070;4.508;2024-03-25T08:33:12;100892.25;;;7.00;100.00
49030;BME280;43337;52.070;4.508;2024-03-25T08:35:38;100888.44;;;7.12;100.00
49030;BME280;43337;52.070;4.508;2024-03-25T08:38:03;100895.22;;;7.19;100.00
49030;BME280;43337;52.070;4.508;2024-03-25T08:40:29;100873.44;;;7.17;100.00
49030;BME280;43337;52.070;4.508;2024-03-25T08:42:54;100884.28;;;7.36;100.00
49030;BME280;43337;52.070;4.508;2024-03-25T08:45:20;100882.22;;;7.45;100.00
49030;BME280;43337;52.070;4.508;2024-03-25T08:47:45;100859.66;;;7.41;100.00
49030;BME280;43337;52.070;4.508;2024-03-25T08:50:11;100873.94;;;7.61;100.00
49030;BME280;43337;52.070;4.508;2024-03-25T08:52:36;100874.69;;;7.64;100.00
49030;BME280;43337;52.070;4.508;2024-03-25T08:55:03;100864.22;;;7.64;100.00
49030;BME280;43337;52.070;4.508;2024-03-25T08:57:29;100866.50;;;7.76;100.00
49030;BME280;43337;52.070;4.508;2024-03-25T08:59:55;100862.94;;;7.77;100.00
49030;BME280;43337;52.070;4.508;2024-03-25T09:02:21;100865.03;;;7.94;100.00
49030;BME280;43337;52.070;4.508;2024-03-25T09:04:46;100862.94;;;8.05;100.00
49030;BME280;43337;52.070;4.508;2024-03-25T09:07:14;100854.69;;;8.18;100.00
49030;BME280;43337;52.070;4.508;2024-03-25T09:09:39;100832.19;;;8.11;100.00
49030;BME280;43337;52.070;4.508;2024-03-25T09:12:23;100855.81;;;8.37;100.00
49030;BME280;43337;52.070;4.508;2024-03-25T09:14:48;100852.06;;;8.46;100.00
49030;BME280;43337;52.070;4.508;2024-03-25T09:17:14;100819.84;;;8.41;100.00
49030;BME280;43337;52.070;4.508;2024-03-25T09:19:42;100848.69;;;8.67;100.00
49030;BME280;43337;52.070;4.508;2024-03-25T09:22:07;100832.03;;;8.68;100.00
49030;BME280;43337;52.070;4.508;2024-03-25T09:24:33;100840.19;;;8.86;100.00
49030;BME280;43337;52.070;4.508;2024-03-25T09:26:58;100835.31;;;9.00;100.00
49030;BME280;43337;52.070;4.508;2024-03-25T09:29:27;100839.00;;;9.18;100.00
49030;BME280;43337;52.070;4.508;2024-03-25T09:31:53;100815.16;;;9.24;100.00
49030;BME280;43337;52.070;4.508;2024-03-25T09:34:18;100826.03;;;9.38;100.00
49030;BME280;43337;52.070;4.508;2024-03-25T09:36:45;100823.84;;;9.49;100.00
49030;BME280;43337;52.070;4.508;2024-03-25T09:39:14;100824.31;;;9.59;100.00
49030;BME280;43337;52.070;4.508;2024-03-25T09:41:43;100825.69;;;9.69;100.00
49030;BME280;43337;52.070;4.508;2024-03-25T09:44:10;100789.38;;;9.57;100.00
49030;BME280;43337;52.070;4.508;2024-03-25T09:46:36;100764.09;;;9.53;100.00
49030;BME280;43337;52.070;4.508;2024-03-25T09:49:03;100811.25;;;9.79;100.00
49030;BME280;43337;52.070;4.508;2024-03-25T09:51:31;100791.81;;;9.62;100.00
49030;BME280;43337;52.070;4.508;2024-03-25T09:53:56;100795.03;;;9.68;100.00
49030;BME280;43337;52.070;4.508;2024-03-25T09:56:22;100809.00;;;9.70;100.00
49030;BME280;43337;52.070;4.508;2024-03-25T09:58:48;100809.97;;;9.68;100.00
49030;BME280;43337;52.070;4.508;2024-03-25T10:01:14;100816.88;;;9.70;100.00
49030;BME280;43337;52.070;4.508;2024-03-25T10:03:40;100805.56;;;9.68;100.00
49030;BME280;43337;52.070;4.508;2024-03-25T10:06:06;100797.81;;;9.65;100.00
49030;BME280;43337;52.070;4.508;2024-03-25T10:08:33;100798.47;;;9.70;100.00
49030;BME280;43337;52.070;4.508;2024-03-25T10:11:00;100798.38;;;9.73;100.00
49030;BME280;43337;52.070;4.508;2024-03-25T10:13:27;100794.88;;;9.73;100.00
49030;BME280;43337;52.070;4.508;2024-03-25T10:15:52;100799.03;;;9.78;100.00
49030;BME280;43337;52.070;4.508;2024-03-25T10:18:19;100776.81;;;9.64;100.00
49030;BME280;43337;52.070;4.508;2024-03-25T10:20:51;100810.28;;;9.82;100.00
49030;BME280;43337;52.070;4.508;2024-03-25T10:23:23;100801.47;;;9.83;100.00
49030;BME280;43337;52.070;4.508;2024-03-25T10:25:52;100795.44;;;9.81;100.00
49030;BME280;43337;52.070;4.508;2024-03-25T10:28:17;100779.66;;;9.81;100.00
49030;BME280;43337;52.070;4.508;2024-03-25T10:30:42;100795.00;;;9.92;100.00
49030;BME280;43337;52.070;4.508;2024-03-25T10:33:08;100791.38;;;9.94;100.00
49030;BME280;43337;52.070;4.508;2024-03-25T10:35:35;100789.25;;;10.04;100.00
49030;BME280;43337;52.070;4.508;2024-03-25T10:38:06;100782.63;;;10.16;100.00
49030;BME280;43337;52.070;4.508;2024-03-25T10:40:37;100765.81;;;10.18;100.00
49030;BME280;43337;52.070;4.508;2024-03-25T10:43:10;100760.31;;;10.24;100.00
49030;BME280;43337;52.070;4.508;2024-03-25T10:45:47;100758.78;;;10.41;100.00
49030;BME280;43337;52.070;4.508;2024-03-25T10:48:19;100765.88;;;10.59;100.00
49030;BME280;43337;52.070;4.508;2024-03-25T10:50:49;100746.00;;;10.52;100.00
49030;BME280;43337;52.070;4.508;2024-03-25T10:53:18;100750.00;;;10.61;100.00
49030;BME280;43337;52.070;4.508;2024-03-25T10:55:46;100743.63;;;10.66;100.00
49030;BME280;43337;52.070;4.508;2024-03-25T10:58:15;100749.53;;;10.71;100.00
49030;BME280;43337;52.070;4.508;2024-03-25T11:00:41;100746.09;;;10.90;100.00
49030;BME280;43337;52.070;4.508;2024-03-25T11:03:07;100750.16;;;10.97;100.00
49030;BME280;43337;52.070;4.508;2024-03-25T11:05:34;100717.75;;;10.95;100.00
49030;BME280;43337;52.070;4.508;2024-03-25T11:08:12;100749.66;;;11.27;100.00
49030;BME280;43337;52.070;4.508;2024-03-25T11:10:47;100738.78;;;11.34;100.00
49030;BME280;43337;52.070;4.508;2024-03-25T11:13:14;100729.84;;;11.37;100.00
49030;BME280;43337;52.070;4.508;2024-03-25T11:15:40;100701.44;;;11.24;100.00
49030;BME280;43337;52.070;4.508;2024-03-25T11:18:13;100727.78;;;11.43;100.00
49030;BME280;43337;52.070;4.508;2024-03-25T11:20:39;100731.88;;;11.49;100.00
49030;BME280;43337;52.070;4.508;2024-03-25T11:23:12;100718.09;;;11.44;100.00
49030;BME280;43337;52.070;4.508;2024-03-25T11:25:38;100712.31;;;11.36;100.00
49030;BME280;43337;52.070;4.508;2024-03-25T11:28:05;100716.44;;;11.41;100.00
49030;BME280;43337;52.070;4.508;2024-03-25T11:30:31;100691.94;;;11.39;100.00
49030;BME280;43337;52.070;4.508;2024-03-25T11:32:58;100671.84;;;11.37;100.00
49030;BME280;43337;52.070;4.508;2024-03-25T11:35:24;100698.41;;;11.51;100.00
49030;BME280;43337;52.070;4.508;2024-03-25T11:37:50;100687.41;;;11.60;100.00
49030;BME280;43337;52.070;4.508;2024-03-25T11:40:17;100692.66;;;11.60;100.00
49030;BME280;43337;52.070;4.508;2024-03-25T11:42:44;100682.13;;;11.60;100.00
49030;BME280;43337;52.070;4.508;2024-03-25T11:45:15;100686.63;;;11.58;100.00
49030;BME280;43337;52.070;4.508;2024-03-25T11:47:45;100678.72;;;11.58;100.00
49030;BME280;43337;52.070;4.508;2024-03-25T11:50:14;100665.44;;;11.60;100.00
49030;BME280;43337;52.070;4.508;2024-03-25T11:52:40;100660.28;;;11.58;100.00
49030;BME280;43337;52.070;4.508;2024-03-25T11:55:07;100666.72;;;11.70;100.00
49030;BME280;43337;52.070;4.508;2024-03-25T11:57:37;100666.34;;;11.78;100.00
49030;BME280;43337;52.070;4.508;2024-03-25T12:00:03;100621.84;;;11.53;100.00
49030;BME280;43337;52.070;4.508;2024-03-25T12:02:35;100630.09;;;11.64;100.00
49030;BME280;43337;52.070;4.508;2024-03-25T12:05:08;100675.34;;;11.91;100.00
49030;BME280;43337;52.070;4.508;2024-03-25T12:07:33;100662.72;;;11.97;100.00
49030;BME280;43337;52.070;4.508;2024-03-25T12:10:01;100671.94;;;12.06;100.00
49030;BME280;43337;52.070;4.508;2024-03-25T12:12:46;100663.81;;;12.11;100.00
49030;BME280;43337;52.070;4.508;2024-03-25T12:15:17;100658.97;;;12.02;100.00
49030;BME280;43337;52.070;4.508;2024-03-25T12:17:43;100662.09;;;11.92;100.00
49030;BME280;43337;52.070;4.508;2024-03-25T12:20:09;100633.50;;;11.66;100.00
49030;BME280;43337;52.070;4.508;2024-03-25T12:22:37;100627.59;;;11.43;100.00
49030;BME280;43337;52.070;4.508;2024-03-25T12:25:04;100644.28;;;11.44;100.00
49030;BME280;43337;52.070;4.508;2024-03-25T12:27:31;100631.69;;;11.49;100.00
49030;BME280;43337;52.070;4.508;2024-03-25T12:30:04;100637.69;;;11.70;100.00
49030;BME280;43337;52.070;4.508;2024-03-25T12:32:43;100632.84;;;11.97;100.00
49030;BME280;43337;52.070;4.508;2024-03-25T12:35:13;100628.56;;;12.12;100.00
49030;BME280;43337;52.070;4.508;2024-03-25T12:37:39;100582.53;;;11.83;100.00
49030;BME280;43337;52.070;4.508;2024-03-25T12:40:07;100623.44;;;12.09;100.00
49030;BME280;43337;52.070;4.508;2024-03-25T12:42:35;100621.97;;;12.03;100.00
49030;BME280;43337;52.070;4.508;2024-03-25T12:45:01;100614.75;;;11.89;100.00